createdAt,value
2022-10-21T00:02:06.686Z,3.16
2022-10-21T00:04:37.310Z,3.10
2022-10-21T00:07:07.011Z,3.16
2022-10-21T00:09:36.799Z,2.96
2022-10-21T00:12:06.940Z,2.91
2022-10-21T00:14:36.721Z,2.88
2022-10-21T00:17:06.778Z,2.68
2022-10-21T00:19:36.564Z,2.70
2022-10-21T00:22:06.728Z,2.58
2022-10-21T00:24:37.702Z,2.73
2022-10-21T00:27:07.837Z,2.73
2022-10-21T00:29:37.992Z,3.11
2022-10-21T00:32:07.498Z,3.15
2022-10-21T00:34:37.285Z,3.06
2022-10-21T00:37:07.159Z,3.26
2022-10-21T00:39:37.309Z,3.58
2022-10-21T00:42:09.042Z,3.43
2022-10-21T00:44:40.807Z,3.61
2022-10-21T00:47:13.641Z,3.68
2022-10-21T00:49:49.152Z,3.55
2022-10-21T00:52:21.988Z,3.53
2022-10-21T00:54:54.549Z,3.71
2022-10-21T00:57:26.283Z,3.75
2022-10-21T00:59:59.123Z,3.62
2022-10-21T01:02:30.366Z,3.69
2022-10-21T01:05:03.294Z,3.70
2022-10-21T01:07:36.450Z,3.89
2022-10-21T01:10:07.290Z,3.85
2022-10-21T01:12:58.060Z,4.11
2022-10-21T01:15:36.511Z,4.05
2022-10-21T01:18:09.759Z,3.99
2022-10-21T01:21:01.145Z,3.99
2022-10-21T01:24:07.382Z,3.92
2022-10-21T01:26:45.601Z,3.98
2022-10-21T01:29:37.950Z,4.03
2022-10-21T01:32:22.899Z,4.04
2022-10-21T01:34:58.560Z,4.12
2022-10-21T01:37:42.944Z,4.06
2022-10-21T01:40:21.414Z,4.04
2022-10-21T01:43:02.189Z,4.06
2022-10-21T01:45:50.055Z,4.08
2022-10-21T01:48:28.497Z,3.99
2022-10-21T01:51:01.486Z,3.97
2022-10-21T01:53:34.459Z,3.82
2022-10-21T01:56:05.220Z,3.83
2022-10-21T01:58:38.202Z,3.71
2022-10-21T02:01:10.194Z,3.71
2022-10-21T02:03:43.304Z,3.72
2022-10-21T02:06:14.156Z,3.76
2022-10-21T02:08:44.687Z,3.75
2022-10-21T02:11:15.330Z,3.69
2022-10-21T02:13:48.429Z,3.72
2022-10-21T02:16:20.977Z,3.73
2022-10-21T02:18:50.786Z,3.73
2022-10-21T02:21:23.772Z,3.68
2022-10-21T02:24:01.934Z,3.59
2022-10-21T02:26:32.870Z,3.50
2022-10-21T02:29:03.112Z,3.52
2022-10-21T02:31:59.297Z,3.55
2022-10-21T02:34:37.741Z,3.54
2022-10-21T02:37:13.128Z,3.44
2022-10-21T02:39:55.083Z,3.41
2022-10-21T02:42:30.797Z,3.42
2022-10-21T02:45:02.840Z,3.40
2022-10-21T02:47:32.665Z,3.47
2022-10-21T02:50:02.546Z,3.77
2022-10-21T02:52:32.423Z,4.03
2022-10-21T02:55:02.599Z,3.94
2022-10-21T02:57:33.477Z,4.06
2022-10-21T03:00:03.363Z,4.04
2022-10-21T03:02:33.308Z,4.10
2022-10-21T03:05:03.485Z,4.34
2022-10-21T03:07:33.297Z,4.20
2022-10-21T03:10:03.110Z,4.21
2022-10-21T03:12:32.914Z,4.25
2022-10-21T03:15:02.796Z,4.47
2022-10-21T03:17:33.599Z,4.57
2022-10-21T03:20:02.459Z,4.56
2022-10-21T03:22:32.063Z,4.52
2022-10-21T03:25:01.879Z,4.59
2022-10-21T03:27:32.781Z,4.66
2022-10-21T03:30:02.703Z,4.90
2022-10-21T03:32:32.903Z,5.04
2022-10-21T03:35:02.789Z,5.04
2022-10-21T03:37:32.598Z,5.03
2022-10-21T03:40:02.384Z,4.98
2022-10-21T03:42:32.182Z,5.09
2022-10-21T03:45:03.357Z,5.29
2022-10-21T03:47:33.207Z,5.19
2022-10-21T03:50:07.541Z,5.18
2022-10-21T03:52:37.060Z,5.47
2022-10-21T03:55:07.834Z,5.38
2022-10-21T03:57:38.447Z,5.42
2022-10-21T04:00:37.314Z,5.40
2022-10-21T04:03:07.022Z,5.45
2022-10-21T04:05:48.982Z,5.44
2022-10-21T04:08:22.190Z,5.55
2022-10-21T04:10:52.039Z,5.70
2022-10-21T04:13:21.576Z,5.75
2022-10-21T04:16:00.961Z,5.71
2022-10-21T04:18:31.034Z,5.99
2022-10-21T04:21:00.673Z,5.86
2022-10-21T04:23:30.474Z,5.90
2022-10-21T04:26:00.175Z,5.83
2022-10-21T04:28:30.391Z,5.85
2022-10-21T04:31:00.186Z,5.83
2022-10-21T04:33:30.144Z,5.82
2022-10-21T04:36:00.394Z,5.87
2022-10-21T04:38:30.729Z,5.87
2022-10-21T04:41:02.771Z,6.01
2022-10-21T04:43:32.687Z,6.02
2022-10-21T04:46:02.484Z,5.99
2022-10-21T04:48:32.287Z,5.94
2022-10-21T04:51:02.095Z,6.00
2022-10-21T04:53:31.898Z,6.05
2022-10-21T04:56:01.693Z,6.17
2022-10-21T04:58:31.501Z,6.21
2022-10-21T05:01:01.385Z,6.18
2022-10-21T05:03:33.030Z,6.22
2022-10-21T05:06:01.817Z,6.15
2022-10-21T05:08:31.361Z,6.12
2022-10-21T05:11:05.215Z,6.12
2022-10-21T05:13:35.249Z,6.12
2022-10-21T05:16:05.919Z,6.12
2022-10-21T05:18:41.203Z,6.17
2022-10-21T05:21:11.106Z,6.09
2022-10-21T05:23:40.924Z,6.09
2022-10-21T05:26:10.914Z,6.12
2022-10-21T05:28:40.712Z,6.12
2022-10-21T05:31:10.777Z,6.19
2022-10-21T05:33:40.577Z,6.19
2022-10-21T05:36:10.376Z,6.14
2022-10-21T05:38:41.142Z,6.13
2022-10-21T05:41:10.944Z,6.12
2022-10-21T05:43:40.779Z,6.12
2022-10-21T05:46:10.517Z,6.16
2022-10-21T05:48:41.360Z,6.18
2022-10-21T05:51:11.292Z,6.17
2022-10-21T05:53:46.166Z,6.21
2022-10-21T05:56:15.680Z,6.22
2022-10-21T05:58:45.504Z,6.22
2022-10-21T06:01:15.491Z,6.23
2022-10-21T06:03:45.822Z,6.29
2022-10-21T06:06:15.439Z,6.31
2022-10-21T06:08:45.420Z,6.43
2022-10-21T06:11:18.219Z,6.35
2022-10-21T06:13:48.657Z,6.49
2022-10-21T06:16:18.556Z,6.57
2022-10-21T06:18:50.416Z,6.61
2022-10-21T06:21:22.896Z,6.96
2022-10-21T06:23:56.597Z,6.96
2022-10-21T06:26:27.404Z,7.14
2022-10-21T06:28:59.082Z,7.45
2022-10-21T06:31:28.950Z,8.14
2022-10-21T06:33:58.777Z,8.84
2022-10-21T06:36:30.718Z,9.11
2022-10-21T06:39:00.513Z,9.42
2022-10-21T06:41:30.333Z,9.58
2022-10-21T06:44:00.465Z,9.73
2022-10-21T06:46:30.265Z,9.91
2022-10-21T06:49:00.143Z,9.83
2022-10-21T06:51:30.943Z,9.66
2022-10-21T06:54:00.920Z,9.63
2022-10-21T06:56:31.772Z,9.48
2022-10-21T06:59:01.924Z,9.37
2022-10-21T07:01:55.228Z,9.37
2022-10-21T07:04:07.399Z,9.26
2022-10-21T07:06:39.273Z,9.40
2022-10-21T07:09:10.764Z,9.26
2022-10-21T07:11:40.306Z,9.26
2022-10-21T07:14:11.053Z,9.27
2022-10-21T07:16:41.100Z,9.46
2022-10-21T07:19:12.068Z,9.42
2022-10-21T07:21:41.957Z,9.33
2022-10-21T07:24:12.110Z,9.46
2022-10-21T07:26:41.858Z,9.25
2022-10-21T07:29:12.174Z,9.43
2022-10-21T07:31:42.389Z,9.40
2022-10-21T07:34:13.203Z,9.60
2022-10-21T07:36:47.744Z,9.52
2022-10-21T07:39:19.586Z,9.65
2022-10-21T07:41:54.738Z,9.65
2022-10-21T07:44:26.167Z,9.74
2022-10-21T07:46:55.634Z,9.71
2022-10-21T07:49:26.357Z,9.76
2022-10-21T07:51:59.766Z,9.72
2022-10-21T07:54:34.357Z,9.87
2022-10-21T07:57:04.225Z,9.79
2022-10-21T07:59:34.011Z,10.03
2022-10-21T08:02:03.994Z,9.94
2022-10-21T08:04:33.886Z,10.08
2022-10-21T08:07:03.715Z,10.06
2022-10-21T08:09:33.519Z,10.14
2022-10-21T08:12:03.320Z,10.14
2022-10-21T08:14:33.816Z,10.51
2022-10-21T08:17:03.381Z,10.36
2022-10-21T08:19:33.267Z,10.32
2022-10-21T08:22:03.204Z,10.32
2022-10-21T08:24:33.426Z,10.60
2022-10-21T08:27:04.598Z,10.62
2022-10-21T08:29:36.492Z,10.80
2022-10-21T08:32:07.111Z,10.80
2022-10-21T08:34:38.189Z,11.04
2022-10-21T08:37:07.990Z,11.30
2022-10-21T08:39:38.010Z,11.92
2022-10-21T08:42:18.518Z,12.26
2022-10-21T08:44:56.834Z,12.17
2022-10-21T08:47:45.698Z,12.20
2022-10-21T08:50:18.648Z,11.83
2022-10-21T08:52:57.474Z,12.08
2022-10-21T08:55:37.626Z,12.08
2022-10-21T08:58:12.664Z,12.52
2022-10-21T09:00:46.321Z,12.93
2022-10-21T09:03:19.251Z,13.02
2022-10-21T09:05:54.981Z,13.19
2022-10-21T09:08:40.880Z,13.11
2022-10-21T09:11:36.673Z,13.19
2022-10-21T09:17:06.725Z,13.13
2022-10-21T09:19:45.602Z,13.13
2022-10-21T09:22:35.300Z,12.70
2022-10-21T09:25:01.103Z,12.68
2022-10-21T09:27:51.299Z,12.86
2022-10-21T09:30:07.681Z,13.08
2022-10-21T09:32:40.688Z,13.42
2022-10-21T09:35:22.720Z,13.85
2022-10-21T09:38:01.235Z,13.57
2022-10-21T09:40:34.042Z,14.24
2022-10-21T09:43:06.686Z,14.24
2022-10-21T09:45:42.017Z,14.27
2022-10-21T09:48:20.817Z,14.02
2022-10-21T09:50:56.183Z,14.23
2022-10-21T09:53:31.580Z,14.45
2022-10-21T09:56:07.343Z,14.30
2022-10-21T09:58:46.064Z,13.90
2022-10-21T10:01:21.461Z,14.22
2022-10-21T10:03:52.908Z,13.67
2022-10-21T10:06:40.268Z,13.73
2022-10-21T10:09:33.331Z,13.93
2022-10-21T10:12:06.208Z,14.21
2022-10-21T10:14:39.076Z,14.65
2022-10-21T10:17:30.797Z,14.15
2022-10-21T10:20:09.934Z,14.15
2022-10-21T10:22:43.176Z,14.79
2022-10-21T10:25:26.235Z,14.82
2022-10-21T10:28:02.261Z,14.70
2022-10-21T10:30:41.160Z,14.79
2022-10-21T10:33:13.612Z,14.91
2022-10-21T10:35:56.464Z,15.09
2022-10-21T10:38:39.004Z,15.16
2022-10-21T10:41:12.012Z,14.87
2022-10-21T10:43:56.503Z,14.97
2022-10-21T10:46:29.427Z,14.85
2022-10-21T10:49:02.588Z,14.85
2022-10-21T10:51:37.981Z,14.93
2022-10-21T10:54:22.465Z,15.21
2022-10-21T10:57:19.588Z,15.45
2022-10-21T10:59:52.507Z,15.83
2022-10-21T11:02:25.289Z,16.27
2022-10-21T11:05:19.357Z,16.06
2022-10-21T11:07:54.938Z,16.02
2022-10-21T11:10:53.328Z,16.37
2022-10-21T11:13:25.944Z,16.31
2022-10-21T11:16:09.407Z,16.53
2022-10-21T11:19:00.366Z,16.60
2022-10-21T11:21:56.981Z,16.73
2022-10-21T11:24:35.913Z,16.73
2022-10-21T11:27:28.232Z,16.36
2022-10-21T11:30:19.665Z,16.69
2022-10-21T11:32:49.948Z,16.68
2022-10-21T11:35:22.464Z,16.28
2022-10-21T11:38:28.714Z,16.34
2022-10-21T11:41:03.300Z,15.90
2022-10-21T11:43:45.244Z,15.73
2022-10-21T11:46:37.434Z,15.76
2022-10-21T11:49:15.622Z,15.80
2022-10-21T11:52:21.544Z,15.91
2022-10-21T11:55:10.752Z,16.18
2022-10-21T11:57:52.293Z,16.32
2022-10-21T12:00:24.974Z,16.07
2022-10-21T12:03:16.085Z,16.17
2022-10-21T12:06:18.539Z,16.35
2022-10-21T12:08:57.366Z,16.45
2022-10-21T12:11:30.437Z,16.60
2022-10-21T12:14:04.327Z,16.57
2022-10-21T12:16:36.457Z,16.68
2022-10-21T12:19:09.396Z,16.37
2022-10-21T12:21:43.295Z,16.20
2022-10-21T12:24:34.924Z,16.35
2022-10-21T12:27:21.806Z,16.15
2022-10-21T12:30:10.742Z,16.12
2022-10-21T12:32:43.563Z,15.94
2022-10-21T12:35:15.992Z,15.90
2022-10-21T12:37:48.908Z,16.27
2022-10-21T12:40:24.533Z,16.70
2022-10-21T12:43:00.457Z,16.55
2022-10-21T12:45:35.301Z,16.23
2022-10-21T12:48:28.762Z,16.38
2022-10-21T12:51:04.119Z,16.47
2022-10-21T12:53:39.547Z,16.28
2022-10-21T12:56:11.829Z,16.55
2022-10-21T12:58:47.187Z,16.47
2022-10-21T13:01:42.499Z,16.58
2022-10-21T13:04:34.924Z,16.48
2022-10-21T13:07:15.892Z,16.38
2022-10-21T13:09:56.614Z,16.25
2022-10-21T13:12:29.508Z,16.12
2022-10-21T13:15:08.125Z,15.91
2022-10-21T13:17:55.626Z,15.62
2022-10-21T13:20:30.091Z,15.48
2022-10-21T13:23:05.236Z,15.48
2022-10-21T13:25:36.865Z,15.42
2022-10-21T13:28:14.813Z,15.29
2022-10-21T13:30:53.708Z,15.09
2022-10-21T13:33:29.836Z,15.07
2022-10-21T13:36:06.981Z,15.17
2022-10-21T13:38:39.253Z,15.06
2022-10-21T13:41:24.251Z,14.98
2022-10-21T13:43:59.648Z,14.88
2022-10-21T13:46:44.061Z,14.90
2022-10-21T13:49:31.354Z,14.82
2022-10-21T13:52:01.151Z,14.80
2022-10-21T13:54:34.053Z,14.65
2022-10-21T13:57:11.387Z,14.67
2022-10-21T13:59:41.194Z,14.66
2022-10-21T14:02:25.709Z,14.69
2022-10-21T14:04:55.664Z,14.73
2022-10-21T14:07:27.599Z,14.73
2022-10-21T14:09:59.300Z,14.78
2022-10-21T14:12:36.593Z,14.63
2022-10-21T14:15:16.022Z,14.34
2022-10-21T14:17:48.877Z,14.30
2022-10-21T14:20:31.975Z,14.47
2022-10-21T14:23:05.067Z,14.43
2022-10-21T14:25:35.625Z,14.35
2022-10-21T14:28:06.969Z,14.32
2022-10-21T14:30:37.536Z,14.32
2022-10-21T14:33:09.722Z,14.18
2022-10-21T14:35:39.669Z,14.21
2022-10-21T14:38:29.568Z,14.16
2022-10-21T14:41:02.462Z,14.07
2022-10-21T14:43:43.946Z,14.00
2022-10-21T14:46:12.820Z,13.87
2022-10-21T14:48:51.817Z,13.88
2022-10-21T14:51:22.955Z,13.64
2022-10-21T14:53:55.815Z,13.60
2022-10-21T14:56:33.832Z,13.69
2022-10-21T14:59:06.696Z,13.63
2022-10-21T15:01:38.523Z,13.52
2022-10-21T15:04:09.839Z,13.37
2022-10-21T15:06:41.614Z,13.31
2022-10-21T15:09:14.224Z,13.38
2022-10-21T15:11:45.992Z,13.21
2022-10-21T15:14:32.051Z,13.22
2022-10-21T15:17:06.810Z,13.05
2022-10-21T15:19:42.577Z,12.93
2022-10-21T15:22:16.029Z,12.87
2022-10-21T15:24:46.841Z,12.60
2022-10-21T15:27:19.844Z,12.47
2022-10-21T15:29:49.908Z,12.29
2022-10-21T15:32:21.493Z,12.29
2022-10-21T15:34:54.020Z,12.19
2022-10-21T15:37:23.535Z,12.18
2022-10-21T15:39:53.327Z,12.03
2022-10-21T15:42:22.908Z,11.89
2022-10-21T15:44:52.763Z,11.84
2022-10-21T15:47:24.062Z,11.76
2022-10-21T15:49:55.543Z,11.71
2022-10-21T15:52:25.064Z,11.45
2022-10-21T15:54:55.409Z,11.53
2022-10-21T15:57:25.220Z,11.53
2022-10-21T15:59:55.163Z,11.35
2022-10-21T16:02:24.702Z,11.36
2022-10-21T16:04:54.783Z,11.07
2022-10-21T16:07:29.685Z,11.11
2022-10-21T16:09:59.582Z,11.22
2022-10-21T16:12:29.369Z,11.21
2022-10-21T16:14:59.461Z,11.05
2022-10-21T16:17:29.316Z,11.02
2022-10-21T16:19:59.112Z,10.98
2022-10-21T16:22:30.898Z,10.76
2022-10-21T16:25:00.748Z,10.87
2022-10-21T16:27:43.839Z,10.74
2022-10-21T16:30:02.033Z,10.73
2022-10-21T16:32:31.821Z,10.73
2022-10-21T16:35:01.614Z,10.61
2022-10-21T16:37:31.421Z,10.54
2022-10-21T16:40:02.303Z,10.54
2022-10-21T16:42:32.392Z,10.43
2022-10-21T16:45:02.236Z,10.43
2022-10-21T16:47:32.272Z,10.50
2022-10-21T16:50:04.845Z,10.39
2022-10-21T16:52:36.272Z,10.45
2022-10-21T16:55:07.312Z,10.52
2022-10-21T16:57:37.488Z,10.56
2022-10-21T17:00:07.919Z,10.59
2022-10-21T17:02:40.356Z,10.61
2022-10-21T17:05:11.681Z,10.65
2022-10-21T17:07:40.670Z,10.67
2022-10-21T17:10:11.261Z,10.67
2022-10-21T17:12:40.925Z,10.84
2022-10-21T17:15:12.371Z,10.76
2022-10-21T17:17:42.461Z,10.77
2022-10-21T17:20:12.842Z,10.75
2022-10-21T17:22:42.728Z,10.76
2022-10-21T17:25:13.650Z,10.71
2022-10-21T17:27:42.676Z,10.66
2022-10-21T17:30:12.857Z,10.59
2022-10-21T17:35:14.498Z,10.39
2022-10-21T17:37:44.274Z,10.39
2022-10-21T17:40:20.012Z,10.58
2022-10-21T17:42:50.608Z,10.90
2022-10-21T17:45:21.135Z,10.90
2022-10-21T17:47:51.952Z,10.68
2022-10-21T17:50:25.876Z,10.54
2022-10-21T17:52:56.392Z,10.44
2022-10-21T17:55:26.956Z,10.63
2022-10-21T17:57:56.765Z,10.45
2022-10-21T18:00:26.577Z,10.33
2022-10-21T18:02:56.403Z,10.38
2022-10-21T18:05:26.487Z,10.67
2022-10-21T18:07:56.539Z,10.49
2022-10-21T18:10:26.235Z,10.38
2022-10-21T18:12:56.039Z,10.43
2022-10-21T18:15:27.472Z,10.56
2022-10-21T18:17:57.302Z,10.30
2022-10-21T18:20:27.259Z,10.32
2022-10-21T18:22:57.417Z,10.30
2022-10-21T18:25:28.259Z,10.45
2022-10-21T18:27:58.056Z,10.22
2022-10-21T18:30:28.167Z,10.33
2022-10-21T18:32:58.494Z,10.56
2022-10-21T18:35:30.004Z,10.56
2022-10-21T18:37:59.825Z,10.33
2022-10-21T18:40:29.995Z,10.34
2022-10-21T18:42:59.921Z,10.30
2022-10-21T18:45:29.779Z,10.47
2022-10-21T18:47:59.770Z,10.45
2022-10-21T18:50:29.566Z,10.18
2022-10-21T18:53:00.950Z,10.27
2022-10-21T18:55:30.751Z,10.28
2022-10-21T18:58:00.552Z,10.28
2022-10-21T19:00:30.391Z,10.32
2022-10-21T19:03:00.194Z,10.62
2022-10-21T19:05:30.002Z,10.66
2022-10-21T19:07:59.954Z,10.51
2022-10-21T19:10:30.106Z,10.51
2022-10-21T19:12:59.906Z,10.47
2022-10-21T19:15:29.812Z,10.46
2022-10-21T19:17:59.889Z,10.64
2022-10-21T19:20:32.199Z,10.43
2022-10-21T19:23:01.992Z,10.33
2022-10-21T19:25:33.121Z,10.37
2022-10-21T19:28:02.819Z,10.27
2022-10-21T19:30:33.039Z,10.33
2022-10-21T19:33:03.793Z,10.38
2022-10-21T19:35:33.590Z,10.31
2022-10-21T19:38:11.215Z,10.38
2022-10-21T19:40:36.368Z,10.40
2022-10-21T19:43:07.273Z,10.32
2022-10-21T19:45:38.079Z,10.42
2022-10-21T19:48:08.293Z,10.50
2022-10-21T19:50:39.582Z,10.54
2022-10-21T19:53:08.357Z,10.53
2022-10-21T19:55:37.777Z,10.54
2022-10-21T19:58:07.570Z,10.59
2022-10-21T20:00:37.602Z,10.49
2022-10-21T20:03:07.409Z,10.56
2022-10-21T20:05:41.961Z,10.48
2022-10-21T20:08:11.563Z,10.54
2022-10-21T20:10:41.460Z,10.60
2022-10-21T20:13:10.950Z,10.55
2022-10-21T20:15:43.788Z,10.72
2022-10-21T20:18:13.319Z,10.69
2022-10-21T20:20:43.686Z,10.58
2022-10-21T20:23:13.289Z,10.61
2022-10-21T20:25:57.313Z,10.50
2022-10-21T20:28:30.600Z,10.52
2022-10-21T20:31:02.698Z,10.55
2022-10-21T20:33:34.583Z,10.60
2022-10-21T20:36:10.158Z,10.52
2022-10-21T20:38:40.200Z,10.51
2022-10-21T20:41:14.759Z,10.61
2022-10-21T20:43:44.622Z,10.51
2022-10-21T20:46:15.180Z,10.52
2022-10-21T20:48:47.296Z,10.45
2022-10-21T20:51:19.035Z,10.51
2022-10-21T20:53:57.752Z,10.45
2022-10-21T20:56:32.673Z,10.48
2022-10-21T20:59:04.082Z,10.63
2022-10-21T21:01:37.548Z,10.51
2022-10-21T21:04:11.298Z,10.46
2022-10-21T21:06:44.094Z,10.42
2022-10-21T21:09:50.585Z,10.44
2022-10-21T21:11:46.713Z,10.39
2022-10-21T21:14:16.630Z,10.36
2022-10-21T21:16:46.485Z,10.27
2022-10-21T21:19:16.741Z,10.37
2022-10-21T21:21:46.893Z,10.50
2022-10-21T21:24:16.914Z,10.70
2022-10-21T21:26:47.043Z,10.56
2022-10-21T21:29:16.873Z,10.52
2022-10-21T21:31:46.625Z,10.53
2022-10-21T21:34:16.994Z,10.57
2022-10-21T21:36:46.828Z,10.62
2022-10-21T21:39:16.682Z,10.56
2022-10-21T21:41:46.824Z,10.77
2022-10-21T21:44:16.580Z,10.56
2022-10-21T21:46:46.530Z,10.56
2022-10-21T21:49:16.646Z,10.57
2022-10-21T21:51:46.797Z,10.54
2022-10-21T21:54:16.889Z,10.52
2022-10-21T21:56:46.749Z,10.57
2022-10-21T21:59:16.719Z,10.48
2022-10-21T22:01:46.869Z,10.57
2022-10-21T22:04:16.558Z,10.41
2022-10-21T22:06:46.346Z,10.52
2022-10-21T22:09:16.630Z,10.55
2022-10-21T22:11:46.609Z,10.48
2022-10-21T22:14:16.893Z,10.61
2022-10-21T22:16:46.653Z,10.54
2022-10-21T22:19:17.176Z,10.51
2022-10-21T22:21:46.754Z,10.41
2022-10-21T22:24:16.744Z,10.39
2022-10-21T22:26:46.827Z,10.15
2022-10-21T22:29:16.323Z,10.33
2022-10-21T22:31:46.107Z,10.32
2022-10-21T22:34:15.705Z,10.24
2022-10-21T22:36:45.479Z,10.34
2022-10-21T22:39:14.964Z,10.31
2022-10-21T22:41:44.742Z,10.32
2022-10-21T22:44:14.700Z,10.49
2022-10-21T22:46:44.487Z,10.37
2022-10-21T22:49:14.047Z,10.36
2022-10-21T22:51:43.959Z,10.32
2022-10-21T22:54:24.293Z,10.33
2022-10-21T22:56:45.024Z,10.38
2022-10-21T22:59:14.521Z,10.62
2022-10-21T23:01:44.477Z,10.55
2022-10-21T23:04:14.333Z,10.43
2022-10-21T23:06:44.145Z,10.54
2022-10-21T23:09:14.046Z,10.38
2022-10-21T23:11:44.344Z,10.45
2022-10-21T23:14:16.045Z,10.21
2022-10-21T23:16:45.902Z,10.10
2022-10-21T23:19:15.686Z,10.00
2022-10-21T23:21:45.469Z,9.94
2022-10-21T23:24:15.690Z,9.80
2022-10-21T23:26:45.479Z,9.72
2022-10-21T23:29:15.129Z,9.70
2022-10-21T23:31:45.086Z,9.59
2022-10-21T23:34:14.601Z,9.46
2022-10-21T23:36:44.368Z,9.52
2022-10-21T23:39:13.925Z,9.42
2022-10-21T23:41:43.701Z,9.65
2022-10-21T23:44:13.322Z,9.57
2022-10-21T23:46:43.474Z,9.41
2022-10-21T23:49:13.257Z,9.34
2022-10-21T23:51:43.050Z,9.26
2022-10-21T23:54:12.972Z,9.18
2022-10-21T23:56:42.758Z,9.01
2022-10-21T23:59:12.550Z,9.02
